< < Back
Terminal Aerodrome Forecast


Current Version              Previous Versions:   1  2  3  4  5  6  7  8  9  

Terminal Aerodrome Forecast

056
FTUS42 KTAE 212300
TAFVLD
TAF
KVLD 212329Z 2200/2224 00000KT P6SM SCT100
     FM220900 00000KT 4SM BR SCT250
     FM221400 00000KT P6SM SCT250
     FM221800 18004KT P6SM VCTS SCT030CB BKN100=

Latest METAR

517
SAUS70 KWBC 220900 RRG
MTRVLD
METAR KVLD 220853Z AUTO 00000KT 7SM FEW065 23/20 A3003 RMK AO2 SLP176
T02280200 55007


USA.gov is the U.S. government's official web portal to all federal, state and local government web resources and services.